Time;durP1;ratioP1;P1;durP2;ratioP2;P2;SDS_P1;SDS_P2;PMS_P1;PMS_P2;Temp;Humidity;BMP_temperature;BMP_pressure;BME280_temperature;BME280_humidity;BME280_pressure;Samples;Min_cycle;Max_cycle;Signal;HPM_P1;HPM_P2
2021/11/30 00:00:58;;;;;;;;;;;;;;;-5.53;79.48;94967.44;5016066;28;20431;-69
2021/11/30 00:03:24;;;;;;;;;;;;;;;-5.35;79.13;94961.13;5013555;28;19994;-69
2021/11/30 00:05:49;;;;;;;;;;;;;;;-5.62;80.12;94954.13;5009550;28;20387;-69
2021/11/30 00:08:15;;;;;;;;;;;;;;;-5.36;78.91;94954.25;4993778;28;20178;-68
2021/11/30 00:10:44;;;;;;;;;;;;;;;-5.45;79.23;94967.81;4999619;28;19994;-68
2021/11/30 00:13:11;;;;;;;;;;;;;;;-5.34;78.33;94973.16;5000732;28;20439;-69
2021/11/30 00:15:36;;;;;;;;;;;;;;;-5.73;79.98;94978.13;5018249;28;20110;-68
2021/11/30 00:18:02;;;;;;;;;;;;;;;-5.56;79.15;94978.84;5005710;28;20029;-69
2021/11/30 00:20:27;;;;;;;;;;;;;;;-5.56;79.56;94973.66;5000008;28;20271;-69
2021/11/30 00:22:52;;;;;;;;;;;;;;;-5.64;79.65;94968.94;4999633;28;20005;-69
2021/11/30 00:25:18;;;;;;;;;;;;;;;-5.34;79.45;94967.97;4999741;28;19984;-70
2021/11/30 00:27:43;;;;;;;;;;;;;;;-5.62;79.44;94980.06;5010393;28;19990;-69
2021/11/30 00:30:08;;;;;;;;;;;;;;;-5.49;79.81;94981.91;5008362;28;19989;-70
2021/11/30 00:32:33;;;;;;;;;;;;;;;-5.40;78.92;94994.28;4994096;28;20024;-70
2021/11/30 00:34:59;;;;;;;;;;;;;;;-5.27;78.64;94988.38;5011192;28;19997;-70
2021/11/30 00:37:24;;;;;;;;;;;;;;;-4.99;77.52;94978.84;5011389;28;19974;-69
2021/11/30 00:39:49;;;;;;;;;;;;;;;-5.16;77.72;94977.31;5020335;28;20540;-70
2021/11/30 00:42:15;;;;;;;;;;;;;;;-5.25;76.81;94965.72;5009053;28;20483;-70
2021/11/30 00:44:42;;;;;;;;;;;;;;;-4.79;75.72;94967.16;4998592;28;19992;-70
2021/11/30 00:47:16;;;;;;;;;;;;;;;-4.88;75.63;94968.59;5005926;28;20012;-70
2021/11/30 00:49:42;;;;;;;;;;;;;;;-4.35;74.07;94944.41;5006492;28;20001;-70
2021/11/30 00:52:07;;;;;;;;;;;;;;;-4.45;73.70;94964.97;5019732;28;19969;-70
2021/11/30 00:54:32;;;;;;;;;;;;;;;-4.77;75.25;94990.44;5008739;28;20001;-70
2021/11/30 00:56:58;;;;;;;;;;;;;;;-5.15;75.75;94984.16;4997087;28;20016;-70
2021/11/30 00:59:27;;;;;;;;;;;;;;;-4.58;74.65;94972.72;5016312;28;19993;-70
2021/11/30 01:01:52;;;;;;;;;;;;;;;-5.10;75.75;94977.75;5014426;28;20004;-70
2021/11/30 01:04:18;;;;;;;;;;;;;;;-5.18;74.98;94977.41;5000412;28;20506;-70
2021/11/30 01:06:43;;;;;;;;;;;;;;;-5.10;76.17;94963.94;4999712;28;19993;-70
2021/11/30 01:09:08;;;;;;;;;;;;;;;-5.27;76.55;94978.00;4999438;28;20430;-70
2021/11/30 01:11:34;;;;;;;;;;;;;;;-5.30;77.01;94976.38;5019879;28;20343;-70
2021/11/30 01:13:59;;;;;;;;;;;;;;;-5.35;76.16;94976.69;5011846;28;20001;-70
2021/11/30 01:16:24;;;;;;;;;;;;;;;-5.37;76.65;94978.53;5000019;28;19970;-70
2021/11/30 01:18:49;;;;;;;;;;;;;;;-5.76;78.04;94991.28;5012955;28;19994;-70
2021/11/30 01:21:15;;;;;;;;;;;;;;;-5.44;76.45;94977.25;5018909;28;19974;-70
2021/11/30 01:23:40;;;;;;;;;;;;;;;-5.31;76.03;94979.91;4990566;28;20005;-70
2021/11/30 01:26:05;;;;;;;;;;;;;;;-5.49;75.73;94979.31;5011025;28;20076;-70
2021/11/30 01:28:30;;;;;;;;;;;;;;;-5.61;76.41;94984.31;5022938;28;19993;-70
2021/11/30 01:30:56;;;;;;;;;;;;;;;-5.49;74.65;94984.50;5009483;28;20077;-70
2021/11/30 01:33:21;;;;;;;;;;;;;;;-5.35;74.95;94984.47;5004371;28;20297;-70
2021/11/30 01:35:47;;;;;;;;;;;;;;;-5.20;72.87;94989.63;5023233;28;19977;-71
2021/11/30 01:38:14;;;;;;;;;;;;;;;-5.00;72.27;94997.97;5013899;28;19994;-70
2021/11/30 01:40:39;;;;;;;;;;;;;;;-5.57;73.81;94982.38;5003355;28;19989;-70
2021/11/30 01:43:05;;;;;;;;;;;;;;;-5.32;73.75;94973.06;5017869;28;19985;-71
2021/11/30 01:50:30;;;;;;;;;;;;;;;-3.81;69.54;94967.72;5007367;28;20464;-71
2021/11/30 01:52:55;;;;;;;;;;;;;;;-3.90;67.50;94958.81;5013741;28;20061;-70
2021/11/30 01:55:21;;;;;;;;;;;;;;;-3.86;69.14;94955.06;5016558;28;20001;-71
2021/11/30 01:57:47;;;;;;;;;;;;;;;-4.31;69.99;94960.66;5017352;28;20692;-70
2021/11/30 02:00:12;;;;;;;;;;;;;;;-4.22;69.02;94964.38;5000985;28;19969;-70
2021/11/30 02:02:38;;;;;;;;;;;;;;;-4.37;69.54;94959.28;5010566;28;19993;-71
2021/11/30 02:05:03;;;;;;;;;;;;;;;-4.57;68.92;94961.44;5007014;28;19970;-71
2021/11/30 02:07:28;;;;;;;;;;;;;;;-3.56;67.10;94959.06;5021092;28;20023;-71
2021/11/30 02:09:54;;;;;;;;;;;;;;;-3.06;66.10;94950.41;5018919;28;20442;-71
2021/11/30 02:12:20;;;;;;;;;;;;;;;-4.06;68.92;94959.84;5006247;28;19981;-70
2021/11/30 02:14:46;;;;;;;;;;;;;;;-3.94;67.75;94957.34;5017651;28;20001;-70
2021/11/30 02:17:11;;;;;;;;;;;;;;;-3.78;66.86;94963.16;5025772;28;20319;-70
2021/11/30 02:19:48;;;;;;;;;;;;;;;-4.34;67.94;94959.09;5005596;28;20181;-70
2021/11/30 02:22:14;;;;;;;;;;;;;;;-3.84;67.29;94947.16;5005498;28;20538;-71
2021/11/30 02:24:39;;;;;;;;;;;;;;;-4.29;67.95;94948.38;5005476;28;20188;-70
2021/11/30 02:27:05;;;;;;;;;;;;;;;-4.14;68.25;94936.13;5021465;28;20001;-71
2021/11/30 02:29:30;;;;;;;;;;;;;;;-3.59;66.40;94924.63;5022755;28;19986;-70
2021/11/30 02:31:55;;;;;;;;;;;;;;;-4.14;67.23;94917.94;5006463;28;19973;-70
2021/11/30 02:34:20;;;;;;;;;;;;;;;-4.40;67.86;94915.28;5014367;28;20425;-70
2021/11/30 02:36:53;;;;;;;;;;;;;;;-4.46;68.47;94920.91;5024941;28;20019;-71
2021/11/30 02:39:23;;;;;;;;;;;;;;;-4.57;69.29;94922.47;5014007;28;20345;-70
2021/11/30 02:41:48;;;;;;;;;;;;;;;-3.91;66.76;94899.91;5019948;28;19990;-70
2021/11/30 02:44:14;;;;;;;;;;;;;;;-4.35;66.86;94902.00;5006008;28;20046;-70
2021/11/30 02:46:41;;;;;;;;;;;;;;;-4.74;67.69;94901.94;5004387;28;19989;-70
2021/11/30 02:49:07;;;;;;;;;;;;;;;-4.15;66.34;94895.44;4988355;28;19978;-71
2021/11/30 02:51:33;;;;;;;;;;;;;;;-4.76;68.00;94893.44;5004454;28;20084;-70
2021/11/30 02:54:00;;;;;;;;;;;;;;;-4.58;68.29;94893.97;5003952;28;20005;-70
2021/11/30 02:56:26;;;;;;;;;;;;;;;-4.83;68.56;94896.41;4995138;28;20050;-71
2021/11/30 02:58:52;;;;;;;;;;;;;;;-4.69;69.25;94899.84;5011343;28;20016;-70
2021/11/30 03:01:17;;;;;;;;;;;;;;;-4.00;66.29;94864.97;5007032;28;20439;-70
2021/11/30 03:03:42;;;;;;;;;;;;;;;-3.85;65.33;94873.47;5025651;28;19984;-70
2021/11/30 03:06:07;;;;;;;;;;;;;;;-4.17;66.36;94863.53;5012987;28;20376;-70
2021/11/30 03:08:38;;;;;;;;;;;;;;;-5.38;74.10;94854.91;5024299;28;19966;-70
2021/11/30 03:11:03;;;;;;;;;;;;;;;-5.43;75.66;94867.34;5009646;28;19989;-70
2021/11/30 03:13:28;;;;;;;;;;;;;;;-5.28;75.04;94868.13;5000171;28;19989;-71
2021/11/30 03:15:56;;;;;;;;;;;;;;;-5.62;76.73;94858.13;5025495;28;19977;-71
2021/11/30 03:18:22;;;;;;;;;;;;;;;-5.93;83.45;94852.28;5015361;28;19994;-71
2021/11/30 03:20:47;;;;;;;;;;;;;;;-5.94;84.67;94849.75;5005791;28;19980;-71
2021/11/30 03:23:12;;;;;;;;;;;;;;;-5.92;82.35;94853.09;5019468;28;20094;-71
2021/11/30 03:25:39;;;;;;;;;;;;;;;-5.31;81.96;94826.00;5022111;28;19990;-72
2021/11/30 03:28:04;;;;;;;;;;;;;;;-5.23;78.33;94828.91;4992178;28;20307;-71
2021/11/30 03:30:30;;;;;;;;;;;;;;;-5.05;79.86;94819.09;5013746;28;20016;-71
2021/11/30 03:35:39;;;;;;;;;;;;;;;-5.34;84.38;94807.06;5025551;28;20012;-71
2021/11/30 03:38:04;;;;;;;;;;;;;;;-4.86;83.74;94805.72;5015478;28;19989;-71
2021/11/30 03:40:29;;;;;;;;;;;;;;;-4.61;78.18;94798.03;5005227;28;19997;-72
2021/11/30 03:42:55;;;;;;;;;;;;;;;-4.85;76.36;94796.16;5004760;28;19993;-72
2021/11/30 03:45:20;;;;;;;;;;;;;;;-4.97;80.61;94808.19;5001109;28;20021;-72
2021/11/30 03:47:45;;;;;;;;;;;;;;;-4.58;79.38;94796.06;4998988;28;20417;-71
2021/11/30 03:50:11;;;;;;;;;;;;;;;-4.26;78.55;94799.16;5012198;28;20159;-72
2021/11/30 03:52:36;;;;;;;;;;;;;;;-4.31;77.10;94778.69;5016059;28;19970;-72
2021/11/30 03:55:02;;;;;;;;;;;;;;;-3.49;74.78;94789.47;5018643;28;20470;-73
2021/11/30 03:57:27;;;;;;;;;;;;;;;-3.61;73.04;94768.59;5020426;28;19977;-72
2021/11/30 03:59:52;;;;;;;;;;;;;;;-3.59;72.87;94756.31;5004976;28;20001;-72
2021/11/30 04:02:17;;;;;;;;;;;;;;;-3.77;71.34;94740.25;5012794;28;20084;-72
2021/11/30 04:04:45;;;;;;;;;;;;;;;-3.42;71.46;94749.88;5024335;28;20431;-72
2021/11/30 04:07:10;;;;;;;;;;;;;;;-3.02;71.53;94746.06;5018917;28;19995;-71
2021/11/30 04:09:35;;;;;;;;;;;;;;;-2.13;67.12;94731.53;5023849;28;20001;-72
2021/11/30 04:12:01;;;;;;;;;;;;;;;-3.31;71.49;94730.03;5019062;28;20027;-72
2021/11/30 04:14:26;;;;;;;;;;;;;;;-3.25;71.53;94726.13;5010657;28;19998;-71
2021/11/30 04:16:52;;;;;;;;;;;;;;;-3.67;69.52;94719.63;5003341;28;19965;-72
2021/11/30 04:19:17;;;;;;;;;;;;;;;-4.07;72.36;94725.91;5021245;28;20581;-72
2021/11/30 04:21:42;;;;;;;;;;;;;;;-3.29;73.93;94721.16;5019562;28;20058;-71
2021/11/30 04:24:08;;;;;;;;;;;;;;;-3.44;78.97;94714.47;5000342;28;20288;-72
2021/11/30 04:26:33;;;;;;;;;;;;;;;-3.01;73.57;94698.25;5013475;28;19921;-72
2021/11/30 04:28:58;;;;;;;;;;;;;;;-2.39;71.59;94697.06;5024451;28;19917;-72
2021/11/30 04:31:24;;;;;;;;;;;;;;;-2.95;70.69;94701.34;5005595;28;19921;-72
2021/11/30 04:33:49;;;;;;;;;;;;;;;-3.71;73.54;94712.94;4996493;28;19991;-71
2021/11/30 04:36:14;;;;;;;;;;;;;;;-3.97;84.76;94705.28;5004544;28;20429;-72
2021/11/30 04:38:40;;;;;;;;;;;;;;;-3.91;82.89;94703.06;5014311;28;19921;-72
2021/11/30 04:41:05;;;;;;;;;;;;;;;-4.19;78.35;94688.59;5024275;28;19921;-72
2021/11/30 04:43:37;;;;;;;;;;;;;;;-4.18;76.43;94669.44;5002925;28;19975;-72
2021/11/30 04:46:08;;;;;;;;;;;;;;;-2.88;73.39;94673.88;4996920;28;20020;-72
2021/11/30 04:48:35;;;;;;;;;;;;;;;-4.33;75.24;94681.78;5000560;28;19918;-72
2021/11/30 04:51:02;;;;;;;;;;;;;;;-3.87;76.72;94669.84;5017267;28;19995;-72
2021/11/30 04:53:28;;;;;;;;;;;;;;;-3.89;73.49;94676.94;5008071;28;19921;-72
2021/11/30 04:55:53;;;;;;;;;;;;;;;-3.35;74.28;94646.13;4990329;28;19964;-71
2021/11/30 04:58:19;;;;;;;;;;;;;;;-4.57;75.17;94657.44;5013229;28;19925;-71
2021/11/30 05:00:44;;;;;;;;;;;;;;;-3.64;75.23;94643.91;5027114;28;19921;-71
2021/11/30 05:03:10;;;;;;;;;;;;;;;-3.81;74.42;94645.16;5026031;28;19932;-71
2021/11/30 05:05:35;;;;;;;;;;;;;;;-4.53;76.31;94633.81;5022725;28;19925;-72
2021/11/30 05:08:01;;;;;;;;;;;;;;;-4.25;77.26;94637.06;5024393;28;20000;-72
2021/11/30 05:10:26;;;;;;;;;;;;;;;-4.57;76.10;94635.81;5027531;28;19956;-71
2021/11/30 05:12:51;;;;;;;;;;;;;;;-3.91;76.55;94640.63;5026092;28;19919;-71
2021/11/30 05:15:17;;;;;;;;;;;;;;;-3.83;77.54;94636.66;5009480;28;19979;-72
2021/11/30 05:17:42;;;;;;;;;;;;;;;-4.27;79.14;94623.31;5011499;28;19925;-71
2021/11/30 05:20:08;;;;;;;;;;;;;;;-4.63;76.80;94636.22;5027613;28;19921;-72
2021/11/30 05:22:33;;;;;;;;;;;;;;;-4.24;87.40;94628.31;5010843;28;19925;-71
2021/11/30 05:24:58;;;;;;;;;;;;;;;-3.92;75.39;94627.75;5006439;28;19928;-71
2021/11/30 05:27:23;;;;;;;;;;;;;;;-4.09;75.29;94622.00;5024922;28;19999;-71
2021/11/30 05:29:49;;;;;;;;;;;;;;;-4.34;77.12;94623.78;5020383;28;19933;-71
2021/11/30 05:32:14;;;;;;;;;;;;;;;-4.49;77.58;94633.50;5006185;28;20361;-71
2021/11/30 05:34:39;;;;;;;;;;;;;;;-4.36;75.24;94614.41;5017824;28;20027;-71
2021/11/30 05:37:05;;;;;;;;;;;;;;;-4.59;78.79;94637.66;5027330;28;19917;-71
2021/11/30 05:39:30;;;;;;;;;;;;;;;-4.76;80.31;94620.69;5006621;28;20429;-71
2021/11/30 05:41:55;;;;;;;;;;;;;;;-5.44;81.07;94623.56;5012914;28;19925;-70
2021/11/30 05:44:21;;;;;;;;;;;;;;;-4.93;81.45;94633.06;5025528;28;20043;-71
2021/11/30 05:46:48;;;;;;;;;;;;;;;-4.60;79.92;94641.22;5015882;28;19925;-70
2021/11/30 05:49:13;;;;;;;;;;;;;;;-5.64;80.66;94620.53;5024832;28;20289;-70
2021/11/30 05:51:39;;;;;;;;;;;;;;;-5.44;82.60;94621.78;5006562;28;20052;-70
2021/11/30 05:54:04;;;;;;;;;;;;;;;-5.34;82.52;94615.03;5003829;28;20316;-70
2021/11/30 05:56:29;;;;;;;;;;;;;;;-5.28;80.90;94611.19;5025372;28;19925;-70
2021/11/30 05:58:55;;;;;;;;;;;;;;;-4.86;81.25;94604.94;5013171;28;19921;-70
2021/11/30 06:01:41;;;;;;;;;;;;;;;-4.65;80.76;94602.59;5007853;28;20275;-71
2021/11/30 06:04:05;;;;;;;;;;;;;;;-4.93;81.18;94601.91;5026531;28;19940;-70
2021/11/30 06:06:31;;;;;;;;;;;;;;;-4.69;81.61;94609.75;5025923;28;19917;-70
2021/11/30 06:08:57;;;;;;;;;;;;;;;-4.86;81.54;94608.34;5025955;28;19928;-69
2021/11/30 06:11:22;;;;;;;;;;;;;;;-5.25;81.29;94605.81;5008647;28;19928;-70
2021/11/30 06:13:47;;;;;;;;;;;;;;;-5.29;80.85;94624.28;5011448;28;20294;-69
2021/11/30 06:16:13;;;;;;;;;;;;;;;-4.91;78.78;94591.41;5026600;28;19957;-69
2021/11/30 06:18:38;;;;;;;;;;;;;;;-4.74;78.52;94603.22;5014744;28;20413;-69
2021/11/30 06:21:03;;;;;;;;;;;;;;;-4.26;77.26;94593.78;5006060;28;19922;-69
2021/11/30 06:23:28;;;;;;;;;;;;;;;-5.12;78.62;94611.00;5019098;28;19933;-69
2021/11/30 06:25:54;;;;;;;;;;;;;;;-4.89;80.00;94600.75;5018045;28;19924;-69
2021/11/30 06:28:19;;;;;;;;;;;;;;;-5.42;80.66;94601.75;5006134;28;19956;-72
2021/11/30 06:30:45;;;;;;;;;;;;;;;-4.93;81.26;94601.09;5018072;28;19921;-68
2021/11/30 06:33:10;;;;;;;;;;;;;;;-4.43;76.76;94583.69;5026112;28;19943;-68
2021/11/30 06:35:37;;;;;;;;;;;;;;;-4.50;76.79;94589.41;4997197;28;19925;-69
2021/11/30 06:38:02;;;;;;;;;;;;;;;-4.74;78.67;94574.66;5006385;28;20309;-68
2021/11/30 06:40:28;;;;;;;;;;;;;;;-4.47;77.53;94592.66;5024731;28;19990;-69
2021/11/30 06:42:53;;;;;;;;;;;;;;;-4.85;79.54;94594.41;5017600;28;20318;-68
2021/11/30 06:45:18;;;;;;;;;;;;;;;-4.63;76.93;94590.31;5022983;28;19917;-68
2021/11/30 06:47:43;;;;;;;;;;;;;;;-5.01;77.46;94589.47;5025570;28;19921;-68
2021/11/30 06:50:09;;;;;;;;;;;;;;;-4.86;77.86;94605.75;5017575;28;20453;-68
2021/11/30 06:52:37;;;;;;;;;;;;;;;-5.39;79.25;94580.81;5005653;28;20008;-68
2021/11/30 06:55:03;;;;;;;;;;;;;;;-5.10;77.90;94577.94;5015784;28;20148;-68
2021/11/30 06:57:28;;;;;;;;;;;;;;;-5.04;79.29;94573.25;5016206;28;20014;-68
2021/11/30 06:59:57;;;;;;;;;;;;;;;-4.53;77.66;94576.63;5004135;28;19961;-68
2021/11/30 07:02:23;;;;;;;;;;;;;;;-4.27;77.21;94563.53;5005070;28;19918;-67
2021/11/30 07:04:51;;;;;;;;;;;;;;;-4.48;77.79;94564.16;5005208;28;20290;-67
2021/11/30 07:10:21;;;;;;;;;;;;;;;-4.33;77.23;94589.06;5024665;28;19979;-66
2021/11/30 07:12:54;;;;;;;;;;;;;;;-4.51;76.35;94566.97;5015195;28;19921;-66
2021/11/30 07:15:21;;;;;;;;;;;;;;;-4.42;76.88;94555.91;5006920;28;19988;-66
2021/11/30 07:17:47;;;;;;;;;;;;;;;-4.66;77.82;94561.94;5005144;28;20012;-66
2021/11/30 07:20:12;;;;;;;;;;;;;;;-4.97;79.23;94561.50;5004973;28;20004;-65
2021/11/30 07:22:37;;;;;;;;;;;;;;;-4.67;79.16;94565.47;5013342;28;19936;-65
2021/11/30 07:25:03;;;;;;;;;;;;;;;-4.67;78.25;94570.69;5018272;28;19924;-65
2021/11/30 07:27:28;;;;;;;;;;;;;;;-4.41;76.58;94561.94;5006232;28;20365;-65
2021/11/30 07:29:53;;;;;;;;;;;;;;;-3.94;75.01;94562.03;5008261;28;19917;-65
2021/11/30 07:32:19;;;;;;;;;;;;;;;-4.41;76.60;94560.19;5024850;28;19931;-65
2021/11/30 07:34:44;;;;;;;;;;;;;;;-4.68;76.20;94543.88;5023179;28;20373;-66
2021/11/30 07:37:09;;;;;;;;;;;;;;;-4.64;77.51;94560.06;5024145;28;19921;-66
2021/11/30 07:39:35;;;;;;;;;;;;;;;-4.27;77.29;94559.19;5004682;28;19972;-67
2021/11/30 07:42:00;;;;;;;;;;;;;;;-3.64;74.10;94531.22;5010378;28;20028;-67
2021/11/30 07:44:26;;;;;;;;;;;;;;;-3.57;74.29;94543.63;5017665;28;19932;-67
2021/11/30 07:46:51;;;;;;;;;;;;;;;-3.77;74.66;94542.53;5014091;28;19995;-67
2021/11/30 07:49:16;;;;;;;;;;;;;;;-3.65;76.00;94535.56;5011215;28;20304;-67
2021/11/30 07:51:41;;;;;;;;;;;;;;;-3.55;74.18;94527.91;4995388;28;19983;-67
2021/11/30 07:54:07;;;;;;;;;;;;;;;-3.37;74.22;94523.03;4969125;28;19929;-67
2021/11/30 07:56:32;;;;;;;;;;;;;;;-3.58;75.41;94525.53;5000445;28;19921;-67
2021/11/30 07:58:58;;;;;;;;;;;;;;;-3.70;75.02;94543.72;4996740;28;19924;-68
2021/11/30 08:01:23;;;;;;;;;;;;;;;-3.65;75.85;94525.16;5018983;28;19924;-68
2021/11/30 08:03:48;;;;;;;;;;;;;;;-3.55;75.17;94520.94;5000139;28;19921;-67
2021/11/30 08:06:14;;;;;;;;;;;;;;;-3.22;73.92;94523.66;4999621;28;20236;-67
2021/11/30 08:08:41;;;;;;;;;;;;;;;-3.49;74.68;94513.59;4994772;28;20656;-67
2021/11/30 08:11:06;;;;;;;;;;;;;;;-3.64;75.43;94510.41;5015047;28;19925;-67
2021/11/30 08:13:31;;;;;;;;;;;;;;;-3.52;73.29;94517.25;5015403;28;20251;-67
2021/11/30 08:15:57;;;;;;;;;;;;;;;-3.21;74.57;94521.88;5000158;28;19979;-67
2021/11/30 08:18:22;;;;;;;;;;;;;;;-3.20;73.66;94534.75;5008640;28;19925;-67
2021/11/30 08:20:47;;;;;;;;;;;;;;;-2.95;74.32;94516.41;5014527;28;19921;-67
2021/11/30 08:23:14;;;;;;;;;;;;;;;-2.59;72.44;94526.59;5007139;28;19929;-68
2021/11/30 08:25:40;;;;;;;;;;;;;;;-2.70;73.15;94527.47;5015500;28;19925;-67
2021/11/30 08:28:05;;;;;;;;;;;;;;;-2.56;72.91;94523.75;4999292;28;19995;-68
2021/11/30 08:30:30;;;;;;;;;;;;;;;-2.40;71.15;94518.97;5009010;28;20295;-67
2021/11/30 08:32:55;;;;;;;;;;;;;;;-2.36;72.65;94519.53;5012086;28;19987;-67
2021/11/30 08:35:21;;;;;;;;;;;;;;;-2.22;71.96;94517.56;5018833;28;19979;-68
2021/11/30 08:37:46;;;;;;;;;;;;;;;-2.21;72.86;94507.03;5009574;28;19925;-68
2021/11/30 08:40:12;;;;;;;;;;;;;;;-2.10;71.72;94511.38;5006616;28;20517;-68
2021/11/30 08:42:37;;;;;;;;;;;;;;;-1.92;69.22;94511.63;5011530;28;19925;-68
2021/11/30 08:45:03;;;;;;;;;;;;;;;-1.93;70.79;94507.34;5010405;28;20397;-68
2021/11/30 08:47:28;;;;;;;;;;;;;;;-1.91;71.00;94521.09;5000885;28;20382;-68
2021/11/30 08:49:53;;;;;;;;;;;;;;;-2.15;72.22;94500.47;5005349;28;19996;-69
2021/11/30 08:52:22;;;;;;;;;;;;;;;-1.89;71.28;94507.94;5014307;28;20264;-69
2021/11/30 08:54:47;;;;;;;;;;;;;;;-1.82;71.45;94503.88;5007155;28;20383;-68
2021/11/30 08:57:13;;;;;;;;;;;;;;;-1.52;68.58;94510.03;5018451;28;20362;-69
2021/11/30 08:59:39;;;;;;;;;;;;;;;-1.48;67.91;94508.84;4999731;28;19928;-68
2021/11/30 09:02:04;;;;;;;;;;;;;;;-1.50;70.67;94515.13;5007626;28;20284;-68
2021/11/30 09:04:30;;;;;;;;;;;;;;;-1.48;69.62;94508.03;5019512;28;19932;-68
2021/11/30 09:06:55;;;;;;;;;;;;;;;-1.50;68.94;94500.31;5019442;28;20137;-69
2021/11/30 09:09:21;;;;;;;;;;;;;;;-1.90;73.74;94498.47;5016547;28;20352;-69
2021/11/30 09:11:46;;;;;;;;;;;;;;;-1.57;71.23;94501.78;4992392;28;19922;-69
2021/11/30 09:14:12;;;;;;;;;;;;;;;-1.57;71.62;94482.72;5003659;28;19932;-70
2021/11/30 09:16:37;;;;;;;;;;;;;;;-1.58;72.13;94474.03;5019890;28;20333;-69
2021/11/30 09:19:03;;;;;;;;;;;;;;;-1.49;70.93;94490.72;5004124;28;19999;-69
2021/11/30 09:21:28;;;;;;;;;;;;;;;-1.64;69.97;94498.88;4996413;28;19976;-69
2021/11/30 09:23:54;;;;;;;;;;;;;;;-1.80;72.21;94491.50;5009502;28;19931;-70
2021/11/30 09:26:19;;;;;;;;;;;;;;;-2.53;76.04;94492.22;5008533;28;19931;-70
2021/11/30 09:28:44;;;;;;;;;;;;;;;-2.01;73.33;94488.91;5017710;28;20194;-71
2021/11/30 09:31:09;;;;;;;;;;;;;;;-2.40;75.73;94490.31;5016826;28;19933;-72
2021/11/30 09:33:38;;;;;;;;;;;;;;;-2.40;74.58;94502.50;5009793;28;20326;-72
2021/11/30 09:36:03;;;;;;;;;;;;;;;-2.65;77.10;94504.50;4988728;28;20238;-71
2021/11/30 09:38:29;;;;;;;;;;;;;;;-2.79;75.68;94485.56;4998937;28;20003;-73
2021/11/30 09:40:58;;;;;;;;;;;;;;;-2.83;77.84;94489.38;4998181;28;20293;-71
2021/11/30 09:43:25;;;;;;;;;;;;;;;-3.10;79.98;94482.78;5000055;28;20088;-73
2021/11/30 09:45:50;;;;;;;;;;;;;;;-3.09;80.09;94500.06;4998427;28;20444;-70
2021/11/30 09:48:15;;;;;;;;;;;;;;;-2.90;79.29;94482.97;4999387;28;20076;-70
2021/11/30 09:50:41;;;;;;;;;;;;;;;-3.15;80.19;94487.53;5012454;28;20499;-71
2021/11/30 09:53:07;;;;;;;;;;;;;;;-3.29;81.16;94479.03;5020143;28;20188;-70
2021/11/30 09:55:32;;;;;;;;;;;;;;;-3.48;82.44;94491.81;4996559;28;20414;-69
2021/11/30 09:57:58;;;;;;;;;;;;;;;-3.61;83.17;94481.50;5006410;28;20077;-70
2021/11/30 10:00:23;;;;;;;;;;;;;;;-3.74;84.03;94505.88;5018674;28;20076;-70
2021/11/30 10:02:48;;;;;;;;;;;;;;;-3.50;82.97;94476.31;5007994;28;20077;-72
2021/11/30 10:05:14;;;;;;;;;;;;;;;-3.44;82.69;94477.63;5002709;28;20346;-71
2021/11/30 10:07:43;;;;;;;;;;;;;;;-3.61;82.78;94478.91;5002226;28;20352;-72
2021/11/30 10:10:12;;;;;;;;;;;;;;;-3.66;84.59;94480.09;5003641;28;19997;-70
2021/11/30 10:12:37;;;;;;;;;;;;;;;-3.60;83.72;94475.38;5013163;28;20028;-70
2021/11/30 10:15:07;;;;;;;;;;;;;;;-3.70;83.92;94490.88;5008203;28;20006;-70
2021/11/30 10:17:34;;;;;;;;;;;;;;;-3.99;85.66;94475.69;5018344;28;20008;-69
2021/11/30 10:20:01;;;;;;;;;;;;;;;-3.76;85.52;94476.56;5012983;28;19974;-71
2021/11/30 10:22:36;;;;;;;;;;;;;;;-3.86;85.54;94479.03;5004376;28;20048;-71
2021/11/30 10:25:13;;;;;;;;;;;;;;;-3.49;84.12;94474.56;5009505;28;20366;-72
2021/11/30 10:27:42;;;;;;;;;;;;;;;-3.37;84.06;94455.38;5017822;28;20101;-72
2021/11/30 10:30:12;;;;;;;;;;;;;;;-3.21;83.84;94454.16;5020506;28;20033;-72
2021/11/30 10:32:39;;;;;;;;;;;;;;;-3.15;83.71;94459.72;5016253;28;19973;-70
2021/11/30 10:35:05;;;;;;;;;;;;;;;-3.11;83.30;94454.25;5014229;28;20601;-72
2021/11/30 10:37:30;;;;;;;;;;;;;;;-3.08;83.47;94506.94;5021181;28;20201;-71
2021/11/30 10:39:55;;;;;;;;;;;;;;;-3.21;83.10;94456.75;5016347;28;20505;-71
2021/11/30 10:42:22;;;;;;;;;;;;;;;-3.32;84.04;94465.44;5018371;28;19997;-73
2021/11/30 10:44:51;;;;;;;;;;;;;;;-3.06;83.61;94455.56;5013531;28;20401;-72
2021/11/30 10:47:17;;;;;;;;;;;;;;;-2.92;82.77;94451.03;5008556;28;20000;-69
2021/11/30 10:49:51;;;;;;;;;;;;;;;-3.04;83.73;94465.84;5019580;28;20088;-69
2021/11/30 10:52:17;;;;;;;;;;;;;;;-3.25;83.92;94473.59;5012855;28;19976;-71
2021/11/30 10:54:42;;;;;;;;;;;;;;;-3.19;84.55;94462.69;5013604;28;20414;-71
2021/11/30 10:57:08;;;;;;;;;;;;;;;-3.17;83.43;94455.56;5017359;28;19980;-71
2021/11/30 10:59:33;;;;;;;;;;;;;;;-2.96;84.08;94462.66;5014624;28;20055;-69
2021/11/30 11:01:58;;;;;;;;;;;;;;;-3.16;84.04;94449.44;5021543;28;20033;-70
2021/11/30 11:04:30;;;;;;;;;;;;;;;-3.05;84.09;94443.38;5017894;28;19981;-72
2021/11/30 11:07:06;;;;;;;;;;;;;;;-2.91;84.21;94476.13;5016827;28;20533;-72
2021/11/30 11:09:57;;;;;;;;;;;;;;;-2.58;83.01;94456.09;5013654;28;20004;-72
2021/11/30 11:12:26;;;;;;;;;;;;;;;-3.11;84.62;94457.72;5012291;28;19970;-73
2021/11/30 11:14:51;;;;;;;;;;;;;;;-2.85;83.99;94482.63;5020036;28;20359;-73
2021/11/30 11:17:26;;;;;;;;;;;;;;;-2.72;84.03;94446.00;5011220;28;20020;-76
2021/11/30 11:19:52;;;;;;;;;;;;;;;-2.80;84.49;94467.44;5017986;28;20423;-75
2021/11/30 11:22:22;;;;;;;;;;;;;;;-2.54;82.58;94457.50;5015669;28;20050;-72
2021/11/30 11:24:50;;;;;;;;;;;;;;;-2.68;83.68;94470.84;5015092;28;20346;-72
2021/11/30 11:27:16;;;;;;;;;;;;;;;-2.64;83.88;94454.00;5012337;28;20092;-72
2021/11/30 11:29:43;;;;;;;;;;;;;;;-2.60;82.50;94465.84;5005250;28;20432;-71
2021/11/30 11:32:08;;;;;;;;;;;;;;;-2.43;82.30;94471.47;5018428;28;19973;-71
2021/11/30 11:34:34;;;;;;;;;;;;;;;-2.66;83.45;94466.31;5008327;28;20439;-72
2021/11/30 11:37:00;;;;;;;;;;;;;;;-2.68;83.81;94463.03;5009500;28;20313;-70
2021/11/30 11:39:25;;;;;;;;;;;;;;;-2.56;82.71;94493.31;5011469;28;20039;-70
2021/11/30 11:41:51;;;;;;;;;;;;;;;-2.50;83.29;94463.31;5018607;28;20028;-71
2021/11/30 11:44:16;;;;;;;;;;;;;;;-2.28;81.79;94459.78;5019705;28;20415;-70
2021/11/30 11:46:44;;;;;;;;;;;;;;;-2.57;83.44;94457.78;5020116;28;19993;-69
2021/11/30 11:49:10;;;;;;;;;;;;;;;-2.55;83.04;94465.47;5019068;28;19977;-69
2021/11/30 11:51:36;;;;;;;;;;;;;;;-2.78;84.01;94466.38;5017671;28;20362;-69
2021/11/30 11:54:01;;;;;;;;;;;;;;;-2.65;84.40;94468.00;5019865;28;20001;-69
2021/11/30 11:56:27;;;;;;;;;;;;;;;-2.68;83.39;94461.25;5020326;28;19980;-70
2021/11/30 11:59:10;;;;;;;;;;;;;;;-2.53;83.51;94456.59;5020504;28;20001;-69
2021/11/30 12:01:36;;;;;;;;;;;;;;;-2.52;83.55;94460.84;5019482;28;20485;-69
2021/11/30 12:04:03;;;;;;;;;;;;;;;-2.33;82.72;94451.50;5019824;28;19977;-69
2021/11/30 12:06:29;;;;;;;;;;;;;;;-2.12;82.08;94471.53;5018401;28;19993;-70
2021/11/30 12:09:07;;;;;;;;;;;;;;;-2.40;83.71;94452.97;5020253;28;19973;-69
2021/11/30 12:11:39;;;;;;;;;;;;;;;-2.30;82.98;94448.66;5016971;28;20568;-69
2021/11/30 12:14:08;;;;;;;;;;;;;;;-2.36;82.86;94449.16;5014729;28;20474;-70
2021/11/30 12:16:52;;;;;;;;;;;;;;;-2.38;84.05;94454.47;5020145;28;20342;-70
2021/11/30 12:19:27;;;;;;;;;;;;;;;-2.42;84.26;94478.31;5019146;28;20033;-70
2021/11/30 12:21:53;;;;;;;;;;;;;;;-2.20;82.20;94455.69;5008695;28;20502;-70
2021/11/30 12:24:38;;;;;;;;;;;;;;;-2.28;83.93;94483.25;5005254;28;20092;-70
2021/11/30 12:27:14;;;;;;;;;;;;;;;-2.35;84.15;94466.44;5016797;28;21527;-70
2021/11/30 12:29:40;;;;;;;;;;;;;;;-2.14;82.85;94450.81;5006655;28;19992;-70
2021/11/30 12:32:12;;;;;;;;;;;;;;;-2.15;83.22;94483.06;5014301;28;19969;-70
2021/11/30 12:34:39;;;;;;;;;;;;;;;-2.09;82.99;94453.03;5006332;28;20060;-70
2021/11/30 12:37:05;;;;;;;;;;;;;;;-2.39;83.81;94458.06;5016604;28;19977;-70
2021/11/30 12:39:49;;;;;;;;;;;;;;;-2.37;84.19;94460.53;5012894;28;20005;-71
2021/11/30 12:42:14;;;;;;;;;;;;;;;-2.39;84.91;94459.81;5008292;28;20017;-70
2021/11/30 12:44:43;;;;;;;;;;;;;;;-2.06;83.55;94457.16;5013952;28;20447;-70
2021/11/30 12:47:21;;;;;;;;;;;;;;;-1.79;82.28;94454.03;5006754;28;19990;-69
2021/11/30 12:49:46;;;;;;;;;;;;;;;-1.70;82.74;94462.03;5006575;28;19993;-72
2021/11/30 12:52:12;;;;;;;;;;;;;;;-1.84;83.17;94458.78;5017916;28;19980;-71
2021/11/30 12:54:39;;;;;;;;;;;;;;;-2.09;83.37;94460.84;5015353;28;20001;-71